Coleman, Texas
Current Conditions -  °F | °C
As of 6:15 PM on Friday 21 Nov 2014 (Local Time) from KCOM Reporting Station
Clear Clear  
Wind Chill: 66°   Ceiling: Unl
Heat Index: 66°   Visibility: 10mi
Dew Point: 54°   Wind: 7mph
Humidity: 66%   Direction: 140°SE
Pressure: 29.98"   Gusts: NA
Location:  31.83°N, 99.43°W
Report Text: KCOM 220015Z AUTO 14006KT 10SM CLR 19/12 A2998 RMK AO2 T01890124
Loading
Personal Weather Stations






























Interactive Weather Map New forecast layout! Learn more

10-Day Weather Forecast

Advertisements
Track Severe Weather on mobile